Terminal Aerodrome Forecast
Issued by NWS Columbia, SC

Home | Current Version | Previous Version | Text Only | Print | Product List | Glossary On
Versions: 1 2 3 4 5 6 7 8 9 10 11 12 13 14 15 16 17 18 19 20 21 22 23 24 25 26
185
FTUS42 KCAE 071441 AAA
TAFCAE
TAF AMD
KCAE 071441Z 0715/0812 35008KT P6SM BKN050 OVC150
     FM071800 33010G18KT P6SM SCT250
     FM072300 30006KT P6SM SKC=

USA.gov is the U.S. government's official web portal to all federal, state and local government web resources and services.